Time;durP1;ratioP1;P1;durP2;ratioP2;P2;SDS_P1;SDS_P2;PMS_P1;PMS_P2;Temp;Humidity;BMP_temperature;BMP_pressure;BME280_temperature;BME280_humidity;BME280_pressure;Samples;Min_cycle;Max_cycle;Signal;HPM_P1;HPM_P2
2021/03/14 00:04:50;;;;;;;1.73;0.52;;;;;;;4.19;68.12;96262.25;9984619;29;20497;-77
2021/03/14 00:10:12;;;;;;;2.05;0.60;;;;;;;4.19;67.92;96262.25;10000930;29;20045;-76
2021/03/14 00:15:32;;;;;;;1.40;0.45;;;;;;;4.19;67.64;96259.47;9988443;29;20110;-76
2021/03/14 00:20:52;;;;;;;1.77;0.50;;;;;;;4.21;68.05;96264.41;10013158;29;20054;-76
2021/03/14 00:26:12;;;;;;;2.38;0.45;;;;;;;4.19;67.93;96242.91;10000184;29;20098;-75
2021/03/14 00:31:32;;;;;;;2.00;0.47;;;;;;;4.13;67.92;96242.50;10012748;29;20470;-76
2021/03/14 00:36:52;;;;;;;1.77;0.47;;;;;;;4.06;67.99;96256.50;9972559;29;20060;-75
2021/03/14 00:42:12;;;;;;;3.45;0.50;;;;;;;4.02;68.14;96251.41;9987145;29;20788;-77
2021/03/14 00:47:34;;;;;;;2.40;0.50;;;;;;;3.97;68.75;96253.16;9999501;29;20042;-76
2021/03/14 00:52:53;;;;;;;2.85;0.60;;;;;;;3.95;69.01;96249.53;9999318;29;20056;-76
2021/03/14 00:58:14;;;;;;;2.17;0.50;;;;;;;3.94;68.55;96257.09;9999584;29;20050;-76
2021/03/14 01:03:34;;;;;;;2.78;0.50;;;;;;;3.95;68.46;96257.81;10011926;29;20054;-75
2021/03/14 01:08:54;;;;;;;1.85;0.50;;;;;;;3.92;68.67;96267.28;9985935;29;20046;-76
2021/03/14 01:14:15;;;;;;;3.03;0.50;;;;;;;3.95;68.75;96257.81;9999168;29;20115;-76
2021/03/14 01:19:47;;;;;;;2.35;0.50;;;;;;;4.06;68.28;96257.22;9977496;29;20057;-75
2021/03/14 01:25:08;;;;;;;1.83;0.45;;;;;;;4.17;67.99;96267.63;10010948;29;20054;-76
2021/03/14 01:30:27;;;;;;;3.00;0.80;;;;;;;4.27;68.02;96265.56;9985328;29;20057;-76
2021/03/14 01:35:47;;;;;;;1.92;0.40;;;;;;;4.38;67.53;96264.19;9998004;29;20052;-77
2021/03/14 01:41:07;;;;;;;2.85;0.75;;;;;;;4.47;67.47;96254.41;9997787;29;20045;-76
2021/03/14 01:46:27;;;;;;;1.90;0.40;;;;;;;4.55;67.43;96263.25;9997390;29;20126;-76
2021/03/14 01:51:46;;;;;;;4.80;0.70;;;;;;;4.59;67.60;96261.47;9984732;29;20102;-76
2021/03/14 01:57:06;;;;;;;3.30;1.27;;;;;;;4.59;67.01;96260.75;9997320;29;20053;-76
2021/03/14 02:02:26;;;;;;;2.38;0.55;;;;;;;4.59;67.33;96255.22;9996463;29;20062;-76
2021/03/14 02:07:50;;;;;;;2.33;0.60;;;;;;;4.61;66.83;96258.09;9982642;29;20052;-76
2021/03/14 02:13:33;;;;;;;2.33;0.40;;;;;;;4.64;66.33;96245.88;9984041;29;20079;-76
2021/03/14 02:19:00;;;;;;;1.55;0.40;;;;;;;4.65;66.91;96227.97;9996345;29;20057;-76
2021/03/14 02:24:23;;;;;;;2.95;0.50;;;;;;;4.61;66.36;96230.47;10009306;29;20053;-76
2021/03/14 02:29:43;;;;;;;2.55;0.50;;;;;;;4.62;66.45;96223.63;9983950;29;20053;-76
2021/03/14 02:35:04;;;;;;;1.58;0.50;;;;;;;4.62;66.28;96223.63;10008380;29;20106;-76
2021/03/14 02:40:24;;;;;;;3.85;0.50;;;;;;;4.67;66.29;96233.63;9995663;29;20379;-75
2021/03/14 02:45:48;;;;;;;3.50;0.35;;;;;;;4.66;66.40;96242.53;9982683;29;20046;-75
2021/03/14 02:51:10;;;;;;;3.67;0.45;;;;;;;4.66;66.68;96231.47;9995435;29;20052;-76
2021/03/14 02:56:30;;;;;;;1.70;0.40;;;;;;;4.59;66.32;96239.34;10008077;29;20049;-76
2021/03/14 03:01:50;;;;;;;2.85;0.38;;;;;;;4.53;66.29;96257.56;9995175;29;20057;-76
2021/03/14 03:07:10;;;;;;;2.13;0.50;;;;;;;4.52;66.35;96245.78;9981952;29;20054;-75
2021/03/14 03:12:29;;;;;;;1.88;0.30;;;;;;;4.50;66.32;96253.22;9994697;29;20131;-75
2021/03/14 03:17:50;;;;;;;2.03;0.30;;;;;;;4.52;66.45;96256.84;9994268;29;20490;-75
2021/03/14 03:23:10;;;;;;;2.38;0.38;;;;;;;4.55;66.45;96260.47;10007575;29;20050;-76
2021/03/14 03:28:30;;;;;;;1.13;0.22;;;;;;;4.49;66.44;96268.34;9994576;29;20125;-76
2021/03/14 03:33:50;;;;;;;1.63;0.30;;;;;;;4.47;66.10;96268.22;9994393;29;20478;-75
2021/03/14 03:39:10;;;;;;;2.08;0.55;;;;;;;4.39;66.24;96262.88;9994302;29;20042;-76
2021/03/14 03:44:33;;;;;;;1.80;0.80;;;;;;;4.30;66.45;96272.66;9994102;29;20125;-75
2021/03/14 03:49:53;;;;;;;1.90;0.57;;;;;;;4.16;67.26;96291.03;9993854;29;20061;-77
2021/03/14 03:55:14;;;;;;;1.50;0.43;;;;;;;4.15;66.79;96322.72;9968559;29;20056;-74
2021/03/14 04:00:33;;;;;;;1.77;0.63;;;;;;;4.20;67.15;96349.31;9993704;29;20478;-76
2021/03/14 04:05:57;;;;;;;1.48;0.40;;;;;;;4.19;66.87;96347.84;9993527;29;20407;-76
2021/03/14 04:11:18;;;;;;;1.50;0.40;;;;;;;4.21;66.99;96358.31;9993685;29;20041;-76
2021/03/14 04:16:39;;;;;;;1.83;0.32;;;;;;;4.17;67.24;96349.75;9980991;29;20413;-76
2021/03/14 04:21:59;;;;;;;1.25;0.30;;;;;;;4.12;66.93;96343.22;9980623;29;20084;-76
2021/03/14 04:27:18;;;;;;;2.05;0.30;;;;;;;4.14;67.12;96356.44;10007113;29;20042;-76
2021/03/14 04:32:38;;;;;;;2.58;0.43;;;;;;;4.19;66.65;96353.38;10000400;29;20129;-77
2021/03/14 04:37:58;;;;;;;2.50;0.40;;;;;;;4.24;66.42;96357.13;10000152;29;20053;-76
2021/03/14 04:43:17;;;;;;;1.40;0.30;;;;;;;4.26;66.29;96358.03;9999655;29;20054;-76
2021/03/14 04:48:37;;;;;;;3.28;0.50;;;;;;;4.30;66.52;96361.06;10012320;29;20068;-77
2021/03/14 04:53:57;;;;;;;2.13;0.40;;;;;;;4.30;65.79;96363.81;10012352;29;20466;-76
2021/03/14 04:59:17;;;;;;;2.20;0.30;;;;;;;4.25;65.90;96358.63;9999207;29;20451;-75
2021/03/14 05:04:37;;;;;;;1.30;0.32;;;;;;;4.14;66.48;96364.72;10011733;29;20545;-76
2021/03/14 05:09:57;;;;;;;1.92;0.40;;;;;;;3.99;66.58;96358.22;10011354;29;20045;-76
2021/03/14 05:15:17;;;;;;;3.72;0.50;;;;;;;3.85;67.26;96353.72;10011215;29;20050;-76
2021/03/14 05:20:38;;;;;;;1.95;0.32;;;;;;;3.67;67.42;96367.72;9998317;29;20045;-75
2021/03/14 05:25:58;;;;;;;1.65;0.30;;;;;;;3.50;68.11;96387.16;9985662;29;20085;-76
2021/03/14 05:31:34;;;;;;;1.30;0.28;;;;;;;3.48;69.21;96400.09;9985712;29;20052;-77
2021/03/14 05:36:54;;;;;;;1.45;0.73;;;;;;;3.48;69.11;96406.34;9997842;29;20053;-76
2021/03/14 05:42:14;;;;;;;2.65;0.40;;;;;;;3.52;68.82;96414.16;9996405;29;20053;-75
2021/03/14 05:47:33;;;;;;;2.13;0.25;;;;;;;3.71;68.22;96406.63;9998884;29;20046;-77
2021/03/14 05:52:53;;;;;;;0.98;0.30;;;;;;;3.96;68.26;96411.13;9988762;29;20049;-74
2021/03/14 05:58:14;;;;;;;2.28;0.40;;;;;;;4.35;67.22;96417.31;9998962;29;20056;-78
2021/03/14 06:03:36;;;;;;;1.85;0.50;;;;;;;6.08;68.27;96422.53;10024009;29;20069;-78
2021/03/14 06:08:56;;;;;;;1.45;0.40;;;;;;;8.11;65.21;96431.81;9985206;29;20046;-77
2021/03/14 06:14:16;;;;;;;1.98;0.60;;;;;;;11.04;58.74;96440.94;10010149;29;20053;-77
2021/03/14 06:19:36;;;;;;;1.08;0.40;;;;;;;11.88;55.85;96450.16;10013089;29;20053;-77
2021/03/14 06:24:56;;;;;;;2.80;0.60;;;;;;;13.13;54.50;96459.25;9998382;29;20084;-76
2021/03/14 06:30:16;;;;;;;2.03;0.47;;;;;;;11.59;52.98;96462.19;9996940;29;20556;-77
2021/03/14 06:35:53;;;;;;;1.58;0.40;;;;;;;9.07;50.91;96485.03;9958639;29;20057;-77
2021/03/14 06:41:19;;;;;;;2.58;0.40;;;;;;;7.62;54.08;96492.19;9985225;29;20054;-77
2021/03/14 06:46:41;;;;;;;2.28;0.70;;;;;;;7.19;55.24;96498.00;9983810;29;20129;-77
2021/03/14 06:52:02;;;;;;;3.95;0.85;;;;;;;7.85;56.37;96505.34;10004960;29;20048;-76
2021/03/14 06:57:22;;;;;;;1.23;0.30;;;;;;;8.78;52.79;96523.78;10045611;29;20073;-76
2021/03/14 07:02:42;;;;;;;3.15;0.50;;;;;;;11.80;51.93;96540.00;10045326;29;20137;-75
2021/03/14 07:08:02;;;;;;;2.25;0.45;;;;;;;16.62;47.47;96541.72;10044655;29;20056;-76
2021/03/14 07:13:22;;;;;;;1.63;0.40;;;;;;;17.22;37.59;96552.31;10045917;29;20045;-76
2021/03/14 07:18:49;;;;;;;2.13;0.40;;;;;;;14.74;41.23;96577.09;10045588;29;20413;-76
2021/03/14 07:24:14;;;;;;;2.45;0.50;;;;;;;12.64;42.14;96580.56;10045294;29;20052;-76
2021/03/14 07:29:34;;;;;;;1.05;0.40;;;;;;;18.40;42.58;96580.84;10019201;29;20399;-77
2021/03/14 07:34:54;;;;;;;1.70;0.40;;;;;;;25.75;32.89;96601.19;10006585;29;20109;-78
2021/03/14 07:40:16;;;;;;;2.67;0.43;;;;;;;31.15;25.41;96607.97;10004366;29;20490;-76
2021/03/14 07:45:36;;;;;;;1.17;0.40;;;;;;;31.98;19.10;96615.34;9944385;29;20061;-77
2021/03/14 07:50:55;;;;;;;1.60;0.50;;;;;;;34.66;15.31;96621.94;9943754;29;20053;-77
2021/03/14 07:56:15;;;;;;;1.15;0.30;;;;;;;38.94;12.44;96643.09;10002748;29;20122;-77
2021/03/14 08:01:37;;;;;;;1.20;0.37;;;;;;;35.60;11.26;96648.69;9993619;29;20455;-77
2021/03/14 08:06:57;;;;;;;1.20;0.35;;;;;;;38.24;11.13;96651.78;10000844;29;20058;-78
2021/03/14 08:12:24;;;;;;;1.23;0.40;;;;;;;41.76;8.80;96656.00;10013346;29;20546;-78
2021/03/14 08:17:44;;;;;;;1.50;0.40;;;;;;;44.69;6.35;96655.91;9975436;29;20426;-78
2021/03/14 08:23:05;;;;;;;2.35;0.50;;;;;;;43.36;5.95;96669.94;10000379;29;20046;-78
2021/03/14 08:28:33;;;;;;;3.60;0.47;;;;;;;35.72;7.97;96674.22;10012910;29;20060;-78
2021/03/14 08:33:59;;;;;;;0.85;0.20;;;;;;;27.94;11.83;96676.94;10000735;29;20054;-77
2021/03/14 08:39:33;;;;;;;1.60;0.40;;;;;;;23.75;14.46;96680.75;9976877;29;20042;-77
2021/03/14 08:45:23;;;;;;;0.80;0.20;;;;;;;17.74;20.25;96688.22;10005923;29;20418;-76
2021/03/14 08:50:53;;;;;;;2.05;0.43;;;;;;;28.23;18.39;96706.50;10026470;29;20049;-77
2021/03/14 08:56:15;;;;;;;2.25;0.43;;;;;;;30.12;11.92;96704.53;10038088;29;20116;-76
2021/03/14 09:01:43;;;;;;;2.50;0.43;;;;;;;24.03;14.87;96689.25;10017706;29;20050;-78
2021/03/14 09:07:10;;;;;;;1.20;0.20;;;;;;;18.77;18.51;96667.06;9987158;29;20062;-77
2021/03/14 09:12:32;;;;;;;1.13;0.40;;;;;;;30.12;16.06;96646.28;9974101;29;20058;-81
2021/03/14 09:18:12;;;;;;;0.98;0.30;;;;;;;40.97;9.03;96630.97;10003612;29;20118;-82
2021/03/14 09:23:42;;;;;;;1.13;0.20;;;;;;;46.64;4.96;96620.44;9985612;29;20054;-77
2021/03/14 09:29:04;;;;;;;1.35;0.32;;;;;;;49.56;2.86;96615.91;9986421;29;20062;-81
2021/03/14 09:34:27;;;;;;;1.98;0.40;;;;;;;50.19;2.02;96623.16;9985343;29;20053;-78
2021/03/14 09:39:47;;;;;;;0.85;0.28;;;;;;;51.10;2.18;96626.34;10023454;29;20046;-76
2021/03/14 09:45:22;;;;;;;0.70;0.30;;;;;;;46.55;2.57;96646.41;9997976;29;20049;-79
2021/03/14 09:50:50;;;;;;;0.73;0.20;;;;;;;46.66;2.06;96664.50;9985958;29;20054;-78
2021/03/14 09:56:13;;;;;;;1.17;0.30;;;;;;;48.20;2.39;96679.78;9997245;29;20054;-77
2021/03/14 10:02:10;;;;;;;1.00;0.40;;;;;;;46.01;2.45;96688.28;10014517;29;20053;-78
2021/03/14 10:07:53;;;;;;;1.83;0.20;;;;;;;43.67;3.06;96690.94;10009284;29;20075;-76
2021/03/14 10:13:13;;;;;;;1.10;0.30;;;;;;;36.94;4.37;96714.44;9983926;29;20053;-77
2021/03/14 10:18:33;;;;;;;2.00;0.30;;;;;;;27.33;7.80;96718.03;9995935;29;20545;-76
2021/03/14 10:24:21;;;;;;;1.00;0.20;;;;;;;28.98;8.77;96707.22;9983528;29;20050;-76
2021/03/14 10:30:01;;;;;;;1.25;0.25;;;;;;;26.23;10.70;96713.63;9996849;29;20068;-75
2021/03/14 10:35:31;;;;;;;1.40;0.40;;;;;;;25.52;11.12;96719.97;9985713;29;20050;-76
2021/03/14 10:41:18;;;;;;;1.45;0.30;;;;;;;21.10;15.23;96722.06;10008048;29;20049;-83
2021/03/14 10:46:51;;;;;;;1.08;0.20;;;;;;;19.38;15.06;96707.00;9984839;29;20058;-77
2021/03/14 10:52:14;;;;;;;2.30;0.35;;;;;;;17.91;17.48;96711.88;9983808;29;20090;-78
2021/03/14 10:57:36;;;;;;;1.08;0.30;;;;;;;15.82;18.68;96718.25;9995012;29;20061;-81
2021/03/14 11:02:59;;;;;;;3.47;1.08;;;;;;;14.84;19.30;96724.22;10008075;29;20547;-91
2021/03/14 11:08:25;;;;;;;2.25;0.40;;;;;;;13.94;21.25;96713.91;9985323;29;20556;-89
2021/03/14 11:13:50;;;;;;;2.42;0.40;;;;;;;13.30;21.79;96713.53;9972037;29;20052;-76
2021/03/14 11:19:34;;;;;;;2.22;0.50;;;;;;;13.15;22.24;96715.00;10010298;29;20379;-76
2021/03/14 11:24:53;;;;;;;1.55;0.30;;;;;;;13.32;23.21;96732.53;9994959;29;20057;-78
2021/03/14 11:30:22;;;;;;;1.35;0.57;;;;;;;12.81;23.88;96749.97;9984494;29;20185;-79
2021/03/14 11:35:42;;;;;;;2.72;0.30;;;;;;;12.39;24.68;96762.84;9983438;29;20434;-78
2021/03/14 11:41:25;;;;;;;1.60;0.38;;;;;;;13.19;25.37;96773.31;10006335;29;20065;-79
2021/03/14 11:47:04;;;;;;;1.75;0.38;;;;;;;12.61;25.83;96766.63;9995673;29;20505;-78
2021/03/14 11:52:35;;;;;;;1.67;0.30;;;;;;;11.67;26.91;96778.38;9993012;29;20046;-78
2021/03/14 11:57:57;;;;;;;3.25;0.40;;;;;;;11.31;27.47;96777.34;9993735;29;20057;-82
2021/03/14 12:03:18;;;;;;;1.92;0.70;;;;;;;11.09;27.97;96780.47;9989221;29;20057;-81
2021/03/14 12:08:43;;;;;;;1.80;0.45;;;;;;;10.93;28.60;96784.53;10023771;29;20046;-81
2021/03/14 12:14:04;;;;;;;2.95;0.50;;;;;;;10.59;29.77;96770.97;10019275;29;20057;-80
2021/03/14 12:19:57;;;;;;;1.25;0.30;;;;;;;10.57;29.83;96784.81;10004084;29;20110;-80
2021/03/14 12:25:25;;;;;;;1.73;0.70;;;;;;;10.73;29.53;96792.59;9991966;29;20057;-80
2021/03/14 12:30:48;;;;;;;1.80;0.60;;;;;;;10.68;29.85;96788.13;9990473;29;20054;-79
2021/03/14 12:36:11;;;;;;;1.15;0.40;;;;;;;10.64;31.76;96785.16;9960744;29;20047;-75
2021/03/14 12:41:41;;;;;;;1.42;0.50;;;;;;;10.57;30.39;96790.41;9981120;24;20612;-81
2021/03/14 12:47:10;;;;;;;1.40;0.43;;;;;;;10.35;30.78;96797.63;10231771;23;20049;31
2021/03/14 12:52:31;;;;;;;1.65;0.60;;;;;;;10.26;31.30;96801.31;10386828;23;20057;-79
2021/03/14 12:57:52;;;;;;;2.35;0.63;;;;;;;10.35;32.36;96814.34;10072486;24;20472;-79
2021/03/14 13:03:22;;;;;;;2.03;0.70;;;;;;;10.36;31.63;96813.00;10030880;29;20049;-80
2021/03/14 13:08:41;;;;;;;1.70;0.55;;;;;;;10.05;33.37;96816.19;10032491;29;20053;-79
2021/03/14 13:14:02;;;;;;;1.70;0.60;;;;;;;9.97;32.89;96816.47;10046640;29;20049;-80
2021/03/14 13:19:22;;;;;;;1.15;0.40;;;;;;;10.04;32.03;96809.91;10298782;24;20070;-83
2021/03/14 13:25:31;;;;;;;1.92;0.52;;;;;;;9.84;33.53;96808.75;10992508;23;20025;31
2021/03/14 13:30:52;;;;;;;2.17;0.50;;;;;;;9.56;33.56;96807.94;9969021;29;20093;-80
2021/03/14 13:36:13;;;;;;;2.33;0.55;;;;;;;10.25;33.90;96805.44;9936354;29;20076;-78
2021/03/14 13:41:33;;;;;;;2.13;0.40;;;;;;;10.68;33.76;96818.84;9958043;29;20098;-78
2021/03/14 13:46:53;;;;;;;1.55;0.60;;;;;;;10.56;33.97;96819.66;9942966;29;20047;-80
2021/03/14 13:52:14;;;;;;;1.98;0.60;;;;;;;10.38;33.78;96835.44;10179634;23;20116;-76
2021/03/14 13:57:34;;;;;;;0.98;0.35;;;;;;;10.13;34.34;96846.56;10009910;29;20132;-79
2021/03/14 14:02:58;;;;;;;3.30;0.38;;;;;;;10.04;34.52;96862.16;10053161;29;20105;-79
2021/03/14 14:08:20;;;;;;;2.08;0.68;;;;;;;9.61;34.82;96876.47;9999453;29;20129;-79
2021/03/14 14:13:40;;;;;;;1.55;0.40;;;;;;;9.39;35.76;96881.50;9979772;29;20061;-78
2021/03/14 14:19:01;;;;;;;3.28;0.65;;;;;;;9.59;36.17;96884.72;9997028;29;20450;-79
2021/03/14 14:24:21;;;;;;;1.45;0.40;;;;;;;9.51;36.90;96889.81;9984545;29;20121;-79
2021/03/14 14:29:43;;;;;;;3.78;0.40;;;;;;;9.29;38.42;96880.91;10007297;29;20105;-78
2021/03/14 14:35:07;;;;;;;2.03;0.50;;;;;;;9.15;37.45;96888.41;10009034;29;20406;-75
2021/03/14 14:40:28;;;;;;;2.08;0.35;;;;;;;9.04;37.65;96889.88;9995467;29;20398;-77
2021/03/14 14:45:48;;;;;;;3.70;0.65;;;;;;;9.18;38.65;96915.06;10021253;29;20046;-77
2021/03/14 14:51:08;;;;;;;2.78;0.50;;;;;;;8.99;37.92;96920.88;10045245;29;20049;-76
2021/03/14 14:56:31;;;;;;;1.20;0.40;;;;;;;9.11;38.34;96916.75;10033637;29;20132;-78
2021/03/14 15:01:51;;;;;;;2.25;0.50;;;;;;;9.33;38.29;96928.47;10033384;29;20057;-78
2021/03/14 15:07:11;;;;;;;1.42;0.55;;;;;;;9.39;39.58;96939.97;9995078;29;20050;-78
2021/03/14 15:12:32;;;;;;;1.25;0.40;;;;;;;8.62;43.93;96942.97;9994473;29;20049;-76
2021/03/14 15:18:57;;;;;;;3.03;0.77;;;;;;;7.87;46.29;96944.44;10007244;29;20054;-79
2021/03/14 15:24:17;;;;;;;3.03;1.40;;;;;;;7.64;44.76;96945.78;10021851;29;20046;-81
2021/03/14 15:29:37;;;;;;;3.53;1.05;;;;;;;8.13;43.88;96946.16;9988969;29;20054;-81
2021/03/14 15:34:57;;;;;;;1.55;0.60;;;;;;;8.75;43.21;96940.31;9988815;29;20072;-80
2021/03/14 15:40:17;;;;;;;4.45;0.52;;;;;;;8.75;42.83;96947.94;9998255;29;20098;-78
2021/03/14 15:45:37;;;;;;;2.47;0.60;;;;;;;8.89;42.92;96962.72;9994320;29;20090;-80
2021/03/14 15:50:57;;;;;;;2.13;0.63;;;;;;;8.87;43.36;96988.34;9983035;29;20600;-78
2021/03/14 15:56:16;;;;;;;4.05;0.80;;;;;;;8.56;43.61;96999.66;9994650;29;20049;-80
2021/03/14 16:01:37;;;;;;;3.42;0.50;;;;;;;8.10;44.08;97016.81;9994805;29;20050;-75
2021/03/14 16:06:57;;;;;;;1.75;0.43;;;;;;;7.47;45.59;97024.50;9980943;29;20053;-76
2021/03/14 16:12:16;;;;;;;3.97;0.60;;;;;;;6.81;47.11;97015.09;9968833;29;20046;-77
2021/03/14 16:17:36;;;;;;;1.75;0.52;;;;;;;6.47;47.33;97016.91;9993906;29;20486;-76
2021/03/14 16:22:56;;;;;;;3.53;0.50;;;;;;;6.48;47.70;97012.81;9993872;29;20497;-77
2021/03/14 16:28:16;;;;;;;1.52;0.40;;;;;;;6.33;52.38;97013.09;10014396;29;20069;-78
2021/03/14 16:33:36;;;;;;;1.38;0.30;;;;;;;6.06;50.98;97012.50;10000295;29;20042;-79
2021/03/14 16:38:56;;;;;;;2.47;0.60;;;;;;;5.99;50.24;97020.38;10012910;29;20046;-78
2021/03/14 16:44:16;;;;;;;2.10;0.90;;;;;;;5.96;51.85;97029.13;10682407;23;20042;-84
2021/03/14 16:56:30;;;;;;;1.27;0.50;;;;;;;5.69;52.50;97054.09;10323031;23;20114;-79
2021/03/14 17:01:50;;;;;;;2.55;0.70;;;;;;;5.77;52.63;97065.06;10025126;29;20068;-80
2021/03/14 17:07:11;;;;;;;5.25;1.02;;;;;;;5.72;52.85;97080.66;10012743;29;20050;-83
2021/03/14 17:12:32;;;;;;;2.42;0.80;;;;;;;5.68;53.89;97102.47;10191885;23;20052;-81
2021/03/14 17:17:52;;;;;;;1.83;0.70;;;;;;;5.58;53.95;97119.06;10096499;29;20033;-84
2021/03/14 17:29:08;;;;;;;1.13;0.47;;;;;;;4.88;55.89;97132.34;10640697;27;820822;-81
2021/03/14 17:34:30;;;;;;;2.30;0.52;;;;;;;4.69;56.18;97137.00;10589675;28;20044;-76
2021/03/14 17:39:51;;;;;;;0.88;0.43;;;;;;;4.53;57.44;97133.66;10575169;28;20035;-72
2021/03/14 17:45:12;;;;;;;1.67;0.60;;;;;;;4.53;56.52;97134.38;10589227;28;20062;-75
2021/03/14 17:50:33;;;;;;;1.08;0.40;;;;;;;4.64;57.01;97133.19;10602992;28;20039;-74
2021/03/14 17:55:54;;;;;;;1.38;0.52;;;;;;;4.71;57.63;97135.13;10574264;28;20043;-74
2021/03/14 18:01:16;;;;;;;1.88;1.00;;;;;;;4.79;57.39;97137.81;10588657;28;20051;-86
2021/03/14 18:06:37;;;;;;;4.68;1.90;;;;;;;4.81;59.32;97146.97;10582834;28;20069;-82
2021/03/14 18:11:59;;;;;;;3.22;1.80;;;;;;;4.85;58.52;97147.31;10560386;28;20428;-74
2021/03/14 18:17:19;;;;;;;3.53;1.77;;;;;;;4.96;58.10;97131.53;10573526;28;20058;-75
2021/03/14 18:22:39;;;;;;;3.20;1.08;;;;;;;5.01;58.69;97144.38;10572911;28;20049;-77
2021/03/14 18:27:58;;;;;;;3.25;1.17;;;;;;;5.03;59.03;97130.72;10572524;28;20100;-75
2021/03/14 18:33:18;;;;;;;3.47;1.10;;;;;;;5.06;59.47;97132.31;10587108;28;20042;-77
2021/03/14 18:38:38;;;;;;;2.92;1.20;;;;;;;5.00;59.95;97142.91;10554949;28;20047;-78
2021/03/14 18:43:58;;;;;;;3.60;1.35;;;;;;;4.91;60.66;97133.22;10517014;28;20039;-81
2021/03/14 18:49:18;;;;;;;2.38;0.93;;;;;;;4.86;59.85;97118.38;10543986;28;20043;-80
2021/03/14 18:54:37;;;;;;;2.42;1.23;;;;;;;4.72;61.22;97136.56;10557738;28;20052;-75
2021/03/14 18:59:57;;;;;;;3.45;1.70;;;;;;;4.56;61.25;97124.25;10543624;28;20044;-75
2021/03/14 19:05:17;;;;;;;6.38;3.53;;;;;;;4.33;62.47;97138.28;10514900;28;20100;-75
2021/03/14 19:10:37;;;;;;;8.48;3.70;;;;;;;4.18;62.52;97136.41;10520307;28;20425;-78
2021/03/14 19:15:57;;;;;;;6.72;3.80;;;;;;;4.04;62.82;97137.97;10485669;28;20066;-76
2021/03/14 19:21:17;;;;;;;7.45;3.85;;;;;;;3.96;62.98;97148.38;10501175;28;20040;-78
2021/03/14 19:26:37;;;;;;;7.90;3.88;;;;;;;3.82;63.83;97133.38;10486907;28;20056;-76
2021/03/14 19:31:57;;;;;;;6.07;3.30;;;;;;;3.64;63.79;97138.13;10486567;28;20417;-80
2021/03/14 19:37:16;;;;;;;5.15;2.58;;;;;;;3.51;65.05;97136.38;10470570;28;20086;-80
2021/03/14 19:42:37;;;;;;;5.03;2.80;;;;;;;3.33;66.46;97130.03;10472217;28;20040;-80
2021/03/14 19:47:57;;;;;;;4.47;2.50;;;;;;;3.25;65.93;97134.13;10471495;28;20375;-77
2021/03/14 19:53:17;;;;;;;7.32;3.17;;;;;;;3.20;67.63;97140.59;10485395;28;20047;-75
2021/03/14 19:58:37;;;;;;;5.65;3.38;;;;;;;3.15;66.26;97137.47;10485492;28;20036;-77
2021/03/14 20:03:58;;;;;;;5.13;2.83;;;;;;;3.13;66.83;97145.59;10498906;28;20048;-80
2021/03/14 20:09:17;;;;;;;8.55;3.97;;;;;;;3.15;67.53;97145.75;10499189;28;20036;-80
2021/03/14 20:14:37;;;;;;;7.78;4.13;;;;;;;3.08;67.80;97152.03;10498760;28;20059;-80
2021/03/14 20:19:57;;;;;;;8.68;4.47;;;;;;;3.05;66.58;97144.88;10498244;28;20063;-82
2021/03/14 20:25:16;;;;;;;9.23;4.47;;;;;;;3.02;66.24;97143.25;10484125;28;20067;-80
2021/03/14 20:30:36;;;;;;;9.13;4.35;;;;;;;3.03;67.05;97141.97;10484106;28;20406;-77
2021/03/14 20:35:56;;;;;;;7.18;3.20;;;;;;;2.95;67.82;97146.78;10512084;28;20044;-77
2021/03/14 20:41:16;;;;;;;7.18;2.72;;;;;;;2.94;67.84;97144.56;10483662;28;20372;-77
2021/03/14 20:46:38;;;;;;;5.97;2.30;;;;;;;3.01;67.38;97144.53;10483694;28;20048;-75
2021/03/14 20:51:58;;;;;;;5.72;2.30;;;;;;;3.09;66.59;97148.00;10484905;28;20093;-75
2021/03/14 20:57:19;;;;;;;4.35;1.73;;;;;;;3.14;66.31;97160.84;10483508;28;20398;-75
2021/03/14 21:02:38;;;;;;;6.35;2.65;;;;;;;3.16;66.17;97144.47;10482910;28;20040;-76
2021/03/14 21:08:03;;;;;;;4.57;1.75;;;;;;;3.19;65.95;97150.16;10496057;28;20051;-77
2021/03/14 21:13:22;;;;;;;7.88;2.70;;;;;;;3.17;66.59;97145.19;10515470;28;20396;-76
2021/03/14 21:18:42;;;;;;;4.05;1.65;;;;;;;3.11;66.41;97148.19;10510244;28;20051;-77
2021/03/14 21:24:02;;;;;;;4.75;1.48;;;;;;;3.05;66.72;97150.41;10521524;28;20046;-77
2021/03/14 21:29:22;;;;;;;4.35;1.55;;;;;;;3.00;66.92;97156.88;10538212;28;20118;-75
2021/03/14 21:34:42;;;;;;;4.32;1.73;;;;;;;2.92;67.22;97149.91;10510164;28;20051;-75
2021/03/14 21:40:04;;;;;;;4.95;1.50;;;;;;;2.83;66.86;97145.72;10552556;28;20051;-76
2021/03/14 21:45:24;;;;;;;3.90;1.75;;;;;;;2.77;67.15;97148.66;10482469;28;20036;-75
2021/03/14 21:50:44;;;;;;;4.45;1.83;;;;;;;2.72;67.32;97140.63;10496229;28;20040;-76
2021/03/14 21:56:04;;;;;;;5.18;1.83;;;;;;;2.69;67.97;97141.72;10509958;28;20047;-76
2021/03/14 22:01:25;;;;;;;5.32;2.17;;;;;;;2.64;67.61;97137.16;10495862;28;20047;-75
2021/03/14 22:06:45;;;;;;;4.55;1.42;;;;;;;2.58;67.62;97143.59;10495532;28;20044;-76
2021/03/14 22:12:05;;;;;;;4.00;1.45;;;;;;;2.63;67.82;97135.69;10497565;28;20048;-75
2021/03/14 22:17:26;;;;;;;5.35;1.88;;;;;;;2.76;67.27;97138.22;10502920;28;20063;-76
2021/03/14 22:22:46;;;;;;;4.63;1.58;;;;;;;2.72;68.26;97138.59;10489349;28;20047;-74
2021/03/14 22:28:06;;;;;;;4.82;1.50;;;;;;;2.63;68.16;97139.19;10502846;28;20059;-75
2021/03/14 22:33:25;;;;;;;4.80;1.60;;;;;;;2.57;67.82;97133.84;10502854;28;20426;-76
2021/03/14 22:38:45;;;;;;;3.83;1.67;;;;;;;2.49;67.95;97124.88;10502638;28;20063;-76
2021/03/14 22:44:06;;;;;;;3.25;1.20;;;;;;;2.38;68.89;97122.50;10530407;28;20086;-75
2021/03/14 22:49:27;;;;;;;4.82;1.70;;;;;;;2.29;69.37;97123.09;10516369;28;20067;-75
2021/03/14 22:54:46;;;;;;;4.65;1.50;;;;;;;2.24;68.42;97126.78;10515880;28;20398;-75
2021/03/14 23:00:40;;;;;;;4.22;1.40;;;;;;;2.14;69.03;97114.88;10501604;28;20097;-75
2021/03/14 23:05:59;;;;;;;4.03;1.35;;;;;;;2.09;69.71;97110.28;10504745;28;20040;-75
2021/03/14 23:11:21;;;;;;;3.70;1.40;;;;;;;1.96;69.82;97103.69;10501271;28;20111;-76
2021/03/14 23:16:41;;;;;;;3.60;1.38;;;;;;;1.89;70.17;97104.41;10498189;28;20056;-75
2021/03/14 23:22:05;;;;;;;3.85;1.77;;;;;;;1.83;70.49;97106.59;10514950;28;20122;-76
2021/03/14 23:27:27;;;;;;;4.45;1.50;;;;;;;1.78;70.84;97104.06;10515155;28;20070;-76
2021/03/14 23:32:48;;;;;;;4.55;1.42;;;;;;;1.75;70.61;97100.41;10514533;28;20040;-77
2021/03/14 23:38:08;;;;;;;2.42;1.15;;;;;;;1.70;71.40;97091.03;10483539;28;20063;-76
2021/03/14 23:43:28;;;;;;;2.72;1.38;;;;;;;1.65;71.16;97096.72;10528298;28;20064;-76
2021/03/14 23:48:48;;;;;;;2.95;1.23;;;;;;;1.60;71.39;97094.88;10499754;28;20032;-76
2021/03/14 23:54:08;;;;;;;2.78;1.40;;;;;;;1.55;71.86;97095.81;10499260;28;20040;-75
2021/03/14 23:59:31;;;;;;;3.67;1.48;;;;;;;1.54;71.97;97106.06;10482911;28;20513;-76
